RCXY weather

Guerin Airport
Guerin, Tainan County, Taiwan

Public forecast

Using degrees Celsius for public forecast. Weather courtesy of forecast.io.

METAR (pilot weather report)

Closest report is Tainan Airport, 4.7 nm (8.7 km) WSW. Retrieved 2019/05/23 03:30 UTC (0 seconds ago):

RCNN 230330Z 34006KT 7000 FEW010 SCT025 BKN040 27/22 Q1011 NOSIG RMK A2987

TAF (pilot weather forecast)

Forecast is more than 12 hours old.

Closest forecast is Tainan Airport, 4.7 nm (8.7 km) WSW. Retrieved 2019/05/22 00:21 UTC (1 day ago):

TAF RCNN 222300Z 2300/2324 36004KT 4800 -DZ BR FEW010 BKN020 BKN040 TX30/2306Z TN26/2320Z BECMG 2301/2304 30008KT 7000 FEW010 BKN040 TEMPO 2305/2310 4800 -RA BR BECMG 2311/2314 36004KT FEW012 BKN060